createdAt,value
2017-09-26T01:37:02.921Z,1024.46
2017-09-26T01:37:03.500Z,1024.41
2017-09-26T01:37:04.097Z,1024.41
2017-09-26T01:37:04.697Z,1024.42
2017-09-26T01:37:05.296Z,1024.41
2017-09-26T01:37:05.896Z,1024.44
2017-09-26T01:37:06.496Z,1024.44
2017-09-26T01:37:07.095Z,1024.43
2017-09-26T01:38:00.552Z,1024.43
2017-09-26T01:38:01.149Z,1024.45
2017-09-26T01:38:01.748Z,1024.45
2017-09-26T01:38:02.348Z,1024.44
2017-09-26T01:38:02.948Z,1024.43
2017-09-26T01:38:03.547Z,1024.44
2017-09-26T01:38:04.147Z,1024.44
2017-09-26T01:38:04.750Z,1024.42
2017-09-26T01:38:59.228Z,1024.42
2017-09-26T01:38:59.824Z,1024.41
2017-09-26T01:39:00.423Z,1024.38
2017-09-26T01:39:01.027Z,1024.40
2017-09-26T01:39:01.623Z,1024.37
2017-09-26T01:39:02.223Z,1024.43
2017-09-26T01:39:02.823Z,1024.41
2017-09-26T01:39:03.421Z,1024.41
2017-09-26T01:39:56.879Z,1024.43
2017-09-26T01:39:57.481Z,1024.43
2017-09-26T01:39:58.076Z,1024.44
2017-09-26T01:39:58.676Z,1024.44
2017-09-26T01:39:59.276Z,1024.44
2017-09-26T01:39:59.876Z,1024.45
2017-09-26T01:40:00.476Z,1024.40
2017-09-26T01:40:01.076Z,1024.41
2017-09-26T01:40:55.650Z,1024.44
2017-09-26T01:40:56.153Z,1024.45
2017-09-26T01:40:56.751Z,1024.47
2017-09-26T01:40:57.356Z,1024.46
2017-09-26T01:40:57.952Z,1024.41
2017-09-26T01:40:58.552Z,1024.44
2017-09-26T01:40:59.152Z,1024.44
2017-09-26T01:40:59.752Z,1024.43
2017-09-26T01:41:54.232Z,1024.42
2017-09-26T01:41:54.828Z,1024.41
2017-09-26T01:41:55.428Z,1024.39
2017-09-26T01:41:56.029Z,1024.42
2017-09-26T01:41:56.627Z,1024.45
2017-09-26T01:41:57.226Z,1024.44
2017-09-26T01:41:57.827Z,1024.43
2017-09-26T01:41:58.429Z,1024.45
2017-09-26T01:42:52.907Z,1024.44
2017-09-26T01:42:53.505Z,1024.46
2017-09-26T01:42:54.105Z,1024.44
2017-09-26T01:42:54.704Z,1024.44
2017-09-26T01:42:55.303Z,1024.43
2017-09-26T01:42:55.904Z,1024.42
2017-09-26T01:42:56.510Z,1024.45
2017-09-26T01:42:57.103Z,1024.44
2017-09-26T01:43:51.586Z,1024.42
2017-09-26T01:43:52.179Z,1024.39
2017-09-26T01:43:52.779Z,1024.42
2017-09-26T01:43:53.378Z,1024.38
2017-09-26T01:43:53.978Z,1024.42
2017-09-26T01:43:54.579Z,1024.37
2017-09-26T01:43:55.178Z,1024.41
2017-09-26T01:43:55.778Z,1024.42
2017-09-26T01:44:49.237Z,1024.40
2017-09-26T01:44:49.832Z,1024.40
2017-09-26T01:44:50.433Z,1024.37
2017-09-26T01:44:51.034Z,1024.36
2017-09-26T01:44:51.634Z,1024.37
2017-09-26T01:44:52.233Z,1024.34
2017-09-26T01:44:52.833Z,1024.41
2017-09-26T01:44:53.433Z,1024.37
2017-09-26T01:45:46.888Z,1024.39
2017-09-26T01:45:47.485Z,1024.41
2017-09-26T01:45:48.084Z,1024.43
2017-09-26T01:45:48.684Z,1024.42
2017-09-26T01:45:49.284Z,1024.37
2017-09-26T01:45:49.884Z,1024.44
2017-09-26T01:45:50.484Z,1024.39
2017-09-26T01:45:51.083Z,1024.38
2017-09-26T01:46:45.593Z,1024.36
2017-09-26T01:46:46.159Z,1024.42
2017-09-26T01:46:46.760Z,1024.40
2017-09-26T01:46:47.358Z,1024.42
2017-09-26T01:46:47.959Z,1024.35
2017-09-26T01:46:48.558Z,1024.39
2017-09-26T01:46:49.162Z,1024.40
2017-09-26T01:46:49.758Z,1024.39
2017-09-26T01:47:44.239Z,1024.36
2017-09-26T01:47:44.835Z,1024.35
2017-09-26T01:47:45.435Z,1024.34
2017-09-26T01:47:46.035Z,1024.39
2017-09-26T01:47:46.637Z,1024.38
2017-09-26T01:47:47.235Z,1024.39
2017-09-26T01:47:47.835Z,1024.36
2017-09-26T01:47:48.434Z,1024.37
2017-09-26T01:48:42.915Z,1024.35
2017-09-26T01:48:43.512Z,1024.36
2017-09-26T01:48:44.112Z,1024.35
2017-09-26T01:48:44.711Z,1024.34
2017-09-26T01:48:45.311Z,1024.34
2017-09-26T01:48:45.911Z,1024.36
2017-09-26T01:48:46.510Z,1024.37
2017-09-26T01:48:47.110Z,1024.37
2017-09-26T01:49:40.567Z,1024.36
2017-09-26T01:49:41.165Z,1024.37
2017-09-26T01:49:41.766Z,1024.35
2017-09-26T01:49:42.363Z,1024.34
2017-09-26T01:49:42.964Z,1024.31
2017-09-26T01:49:43.564Z,1024.32
2017-09-26T01:49:44.164Z,1024.32
2017-09-26T01:49:44.764Z,1024.36
2017-09-26T01:50:39.242Z,1024.36
2017-09-26T01:50:39.838Z,1024.35
2017-09-26T01:50:40.437Z,1024.36
2017-09-26T01:50:41.037Z,1024.36
2017-09-26T01:50:41.638Z,1024.37
2017-09-26T01:50:42.237Z,1024.38
2017-09-26T01:50:42.838Z,1024.36
2017-09-26T01:50:43.449Z,1024.38
2017-09-26T01:51:36.896Z,1024.37
2017-09-26T01:51:37.491Z,1024.35
2017-09-26T01:51:38.091Z,1024.35
2017-09-26T01:51:38.691Z,1024.37
2017-09-26T01:51:39.291Z,1024.35
2017-09-26T01:51:39.895Z,1024.36
2017-09-26T01:51:40.495Z,1024.36
2017-09-26T01:51:41.093Z,1024.39
2017-09-26T01:52:35.595Z,1024.39
2017-09-26T01:52:36.166Z,1024.37
2017-09-26T01:52:36.767Z,1024.39
2017-09-26T01:52:37.370Z,1024.40
2017-09-26T01:52:37.965Z,1024.37
2017-09-26T01:52:38.565Z,1024.39
2017-09-26T01:52:39.166Z,1024.38
2017-09-26T01:52:39.765Z,1024.37
2017-09-26T01:53:33.222Z,1024.37
2017-09-26T01:53:33.818Z,1024.38
2017-09-26T01:53:34.421Z,1024.40
2017-09-26T01:53:35.017Z,1024.38
2017-09-26T01:53:35.617Z,1024.36
2017-09-26T01:53:36.217Z,1024.37
2017-09-26T01:53:36.817Z,1024.40
2017-09-26T01:53:37.420Z,1024.40
2017-09-26T01:54:31.897Z,1024.40
2017-09-26T01:54:32.493Z,1024.42
2017-09-26T01:54:33.093Z,1024.38
2017-09-26T01:54:33.693Z,1024.39
2017-09-26T01:54:34.292Z,1024.40
2017-09-26T01:54:34.893Z,1024.43
2017-09-26T01:54:35.492Z,1024.41
2017-09-26T01:54:36.093Z,1024.43
2017-09-26T01:55:30.572Z,1024.41
2017-09-26T01:55:31.171Z,1024.42
2017-09-26T01:55:31.779Z,1024.38
2017-09-26T01:55:32.372Z,1024.40
2017-09-26T01:55:32.968Z,1024.44
2017-09-26T01:55:33.568Z,1024.41
2017-09-26T01:55:34.169Z,1024.41
2017-09-26T01:55:34.767Z,1024.42
2017-09-26T01:56:29.247Z,1024.40
2017-09-26T01:56:29.845Z,1024.38
2017-09-26T01:56:30.445Z,1024.39
2017-09-26T01:56:31.045Z,1024.40
2017-09-26T01:56:31.644Z,1024.42
2017-09-26T01:56:32.250Z,1024.41
2017-09-26T01:56:32.844Z,1024.40
2017-09-26T01:56:33.444Z,1024.39
2017-09-26T01:57:26.901Z,1024.44
2017-09-26T01:57:27.499Z,1024.40
2017-09-26T01:57:28.098Z,1024.42
2017-09-26T01:57:28.699Z,1024.41
2017-09-26T01:57:29.298Z,1024.40
2017-09-26T01:57:29.898Z,1024.42
2017-09-26T01:57:30.497Z,1024.36
2017-09-26T01:57:31.096Z,1024.41
2017-09-26T01:58:24.582Z,1024.42
2017-09-26T01:58:25.149Z,1024.43
2017-09-26T01:58:25.749Z,1024.39
2017-09-26T01:58:26.349Z,1024.43
2017-09-26T01:58:26.949Z,1024.40
2017-09-26T01:58:27.551Z,1024.38
2017-09-26T01:58:28.148Z,1024.39
2017-09-26T01:58:28.748Z,1024.40
2017-09-26T01:59:23.228Z,1024.42
2017-09-26T01:59:23.823Z,1024.41
2017-09-26T01:59:24.427Z,1024.43
2017-09-26T01:59:25.024Z,1024.41
2017-09-26T01:59:25.630Z,1024.41
2017-09-26T01:59:26.224Z,1024.42
2017-09-26T01:59:26.824Z,1024.40
2017-09-26T01:59:27.424Z,1024.41
2017-09-26T02:00:21.904Z,1024.42
2017-09-26T02:00:22.500Z,1024.44
2017-09-26T02:00:23.099Z,1024.48
2017-09-26T02:00:23.699Z,1024.44
2017-09-26T02:00:24.299Z,1024.44
2017-09-26T02:00:24.899Z,1024.45
2017-09-26T02:00:25.503Z,1024.44
2017-09-26T02:00:26.099Z,1024.44
2017-09-26T02:01:20.580Z,1024.46
2017-09-26T02:01:21.182Z,1024.46
2017-09-26T02:01:21.776Z,1024.45
2017-09-26T02:01:22.376Z,1024.48
2017-09-26T02:01:22.975Z,1024.47
2017-09-26T02:01:23.576Z,1024.48
2017-09-26T02:01:24.175Z,1024.47
2017-09-26T02:01:24.776Z,1024.49
2017-09-26T02:02:19.255Z,1024.47
2017-09-26T02:02:19.850Z,1024.45
2017-09-26T02:02:20.451Z,1024.47
2017-09-26T02:02:21.050Z,1024.45
2017-09-26T02:02:21.649Z,1024.45
2017-09-26T02:02:22.250Z,1024.45
2017-09-26T02:02:22.849Z,1024.43
2017-09-26T02:02:23.462Z,1024.43
2017-09-26T02:03:16.909Z,1024.46
2017-09-26T02:03:17.505Z,1024.42
2017-09-26T02:03:18.103Z,1024.44
2017-09-26T02:03:18.704Z,1024.46
2017-09-26T02:03:19.304Z,1024.45
2017-09-26T02:03:19.903Z,1024.45
2017-09-26T02:03:20.503Z,1024.47
2017-09-26T02:03:21.104Z,1024.46
2017-09-26T02:04:14.588Z,1024.48
2017-09-26T02:04:15.155Z,1024.47
2017-09-26T02:04:15.755Z,1024.47
2017-09-26T02:04:16.356Z,1024.48
2017-09-26T02:04:16.955Z,1024.47
2017-09-26T02:04:17.559Z,1024.48
2017-09-26T02:04:18.154Z,1024.49
2017-09-26T02:04:18.755Z,1024.49
2017-09-26T02:05:12.210Z,1024.47
2017-09-26T02:05:12.807Z,1024.45
2017-09-26T02:05:13.406Z,1024.46
2017-09-26T02:05:14.007Z,1024.49
2017-09-26T02:05:14.607Z,1024.47
2017-09-26T02:05:15.207Z,1024.47
2017-09-26T02:05:15.806Z,1024.46
2017-09-26T02:05:16.406Z,1024.49
2017-09-26T02:06:09.863Z,1024.43
2017-09-26T02:06:10.459Z,1024.48
2017-09-26T02:06:11.058Z,1024.48
2017-09-26T02:06:11.657Z,1024.45
2017-09-26T02:06:12.258Z,1024.46
2017-09-26T02:06:12.858Z,1024.42
2017-09-26T02:06:13.458Z,1024.47
2017-09-26T02:06:14.058Z,1024.49
2017-09-26T02:07:07.513Z,1024.44
2017-09-26T02:07:08.111Z,1024.46
2017-09-26T02:07:08.712Z,1024.44
2017-09-26T02:07:09.311Z,1024.45
2017-09-26T02:07:09.914Z,1024.43
2017-09-26T02:07:10.510Z,1024.45
2017-09-26T02:07:11.109Z,1024.43
2017-09-26T02:07:11.709Z,1024.44
2017-09-26T02:08:06.190Z,1024.45
2017-09-26T02:08:06.786Z,1024.46
2017-09-26T02:08:07.391Z,1024.43
2017-09-26T02:08:07.986Z,1024.44
2017-09-26T02:08:08.588Z,1024.46
2017-09-26T02:08:09.185Z,1024.43
2017-09-26T02:08:09.784Z,1024.45
2017-09-26T02:08:10.384Z,1024.43
2017-09-26T02:09:04.868Z,1024.45
2017-09-26T02:09:05.461Z,1024.47
2017-09-26T02:09:06.061Z,1024.45
2017-09-26T02:09:06.660Z,1024.46
2017-09-26T02:09:07.260Z,1024.47
2017-09-26T02:09:07.860Z,1024.47
2017-09-26T02:09:08.460Z,1024.45
2017-09-26T02:09:09.061Z,1024.46
2017-09-26T02:10:03.564Z,1024.45
2017-09-26T02:10:04.137Z,1024.46
2017-09-26T02:10:04.738Z,1024.47
2017-09-26T02:10:05.338Z,1024.47
2017-09-26T02:10:05.936Z,1024.49
2017-09-26T02:10:06.539Z,1024.49
2017-09-26T02:10:07.136Z,1024.47
2017-09-26T02:10:07.736Z,1024.49
2017-09-26T02:11:02.215Z,1024.45
2017-09-26T02:11:02.816Z,1024.46
2017-09-26T02:11:03.410Z,1024.49
2017-09-26T02:11:04.010Z,1024.45
2017-09-26T02:11:04.611Z,1024.47
2017-09-26T02:11:05.211Z,1024.45
2017-09-26T02:11:05.811Z,1024.46
2017-09-26T02:11:06.411Z,1024.44
2017-09-26T02:12:00.891Z,1024.48
2017-09-26T02:12:01.488Z,1024.49
2017-09-26T02:12:02.088Z,1024.47
2017-09-26T02:12:02.688Z,1024.47
2017-09-26T02:12:03.287Z,1024.48
2017-09-26T02:12:03.888Z,1024.46
2017-09-26T02:12:04.488Z,1024.47
2017-09-26T02:12:05.088Z,1024.46
2017-09-26T02:12:58.545Z,1024.47
2017-09-26T02:12:59.142Z,1024.46
2017-09-26T02:12:59.742Z,1024.46
2017-09-26T02:13:00.341Z,1024.48
2017-09-26T02:13:00.941Z,1024.49
2017-09-26T02:13:01.541Z,1024.48
2017-09-26T02:13:02.140Z,1024.47
2017-09-26T02:13:02.740Z,1024.45
2017-09-26T02:13:56.196Z,1024.47
2017-09-26T02:13:56.792Z,1024.48
2017-09-26T02:13:57.391Z,1024.45
2017-09-26T02:13:57.991Z,1024.49
2017-09-26T02:13:58.592Z,1024.47
2017-09-26T02:13:59.193Z,1024.46
2017-09-26T02:13:59.791Z,1024.44
2017-09-26T02:14:00.391Z,1024.46
2017-09-26T02:14:53.847Z,1024.43
2017-09-26T02:14:54.443Z,1024.47
2017-09-26T02:14:55.043Z,1024.45
2017-09-26T02:14:55.644Z,1024.45
2017-09-26T02:14:56.248Z,1024.46
2017-09-26T02:14:56.852Z,1024.48
2017-09-26T02:14:57.443Z,1024.47
2017-09-26T02:14:58.043Z,1024.45
2017-09-26T02:15:51.528Z,1024.41
2017-09-26T02:15:52.096Z,1024.46
2017-09-26T02:15:52.695Z,1024.47
2017-09-26T02:15:53.295Z,1024.45
2017-09-26T02:15:53.895Z,1024.47
2017-09-26T02:15:54.496Z,1024.47
2017-09-26T02:15:55.095Z,1024.44
2017-09-26T02:15:55.695Z,1024.46
2017-09-26T02:16:49.152Z,1024.47
2017-09-26T02:16:49.747Z,1024.46
2017-09-26T02:16:50.348Z,1024.47
2017-09-26T02:16:50.946Z,1024.49
2017-09-26T02:16:51.547Z,1024.44
2017-09-26T02:16:52.148Z,1024.48
2017-09-26T02:16:52.747Z,1024.51
2017-09-26T02:16:53.347Z,1024.49
2017-09-26T02:17:47.826Z,1024.44
2017-09-26T02:17:48.423Z,1024.49
2017-09-26T02:17:49.022Z,1024.46
2017-09-26T02:17:49.622Z,1024.43
2017-09-26T02:17:50.222Z,1024.45
2017-09-26T02:17:50.822Z,1024.50
2017-09-26T02:17:51.422Z,1024.46
2017-09-26T02:17:52.021Z,1024.45
2017-09-26T02:18:45.477Z,1024.47
2017-09-26T02:18:46.076Z,1024.44
2017-09-26T02:18:46.673Z,1024.44
2017-09-26T02:18:47.273Z,1024.46
2017-09-26T02:18:47.873Z,1024.46
2017-09-26T02:18:48.476Z,1024.47
2017-09-26T02:18:49.075Z,1024.45
2017-09-26T02:18:49.674Z,1024.48
2017-09-26T02:19:44.155Z,1024.45
2017-09-26T02:19:44.753Z,1024.45
2017-09-26T02:19:45.349Z,1024.45
2017-09-26T02:19:45.949Z,1024.45
2017-09-26T02:19:46.548Z,1024.45
2017-09-26T02:19:47.150Z,1024.47
2017-09-26T02:19:47.751Z,1024.50
2017-09-26T02:19:48.349Z,1024.49
2017-09-26T02:20:42.829Z,1024.45
2017-09-26T02:20:43.429Z,1024.46
2017-09-26T02:20:44.026Z,1024.44
2017-09-26T02:20:44.628Z,1024.43
2017-09-26T02:20:45.225Z,1024.49
2017-09-26T02:20:45.838Z,1024.41
2017-09-26T02:20:46.426Z,1024.45
2017-09-26T02:20:47.025Z,1024.41
2017-09-26T02:21:41.532Z,1024.46
2017-09-26T02:21:42.100Z,1024.44
2017-09-26T02:21:42.700Z,1024.45
2017-09-26T02:21:43.299Z,1024.44
2017-09-26T02:21:43.899Z,1024.45
2017-09-26T02:21:44.500Z,1024.45
2017-09-26T02:21:45.102Z,1024.44
2017-09-26T02:21:45.699Z,1024.46
2017-09-26T02:22:39.157Z,1024.47
2017-09-26T02:22:39.753Z,1024.45
2017-09-26T02:22:40.353Z,1024.48
2017-09-26T02:22:40.952Z,1024.43
2017-09-26T02:22:41.553Z,1024.46
2017-09-26T02:22:42.152Z,1024.48
2017-09-26T02:22:42.753Z,1024.46
2017-09-26T02:22:43.353Z,1024.41
2017-09-26T02:23:37.831Z,1024.44
2017-09-26T02:23:38.427Z,1024.47
2017-09-26T02:23:39.028Z,1024.45
2017-09-26T02:23:39.629Z,1024.39
2017-09-26T02:23:40.228Z,1024.48
2017-09-26T02:23:40.827Z,1024.47
2017-09-26T02:23:41.428Z,1024.44
2017-09-26T02:23:42.028Z,1024.46
2017-09-26T02:24:35.485Z,1024.48
2017-09-26T02:24:36.083Z,1024.47
2017-09-26T02:24:36.679Z,1024.49
2017-09-26T02:24:37.280Z,1024.49
2017-09-26T02:24:37.880Z,1024.47
2017-09-26T02:24:38.480Z,1024.47
2017-09-26T02:24:39.079Z,1024.47
2017-09-26T02:24:39.678Z,1024.45
2017-09-26T02:25:33.136Z,1024.48
2017-09-26T02:25:33.732Z,1024.49
2017-09-26T02:25:34.331Z,1024.47
2017-09-26T02:25:34.932Z,1024.46
2017-09-26T02:25:35.532Z,1024.42
2017-09-26T02:25:36.132Z,1024.45
2017-09-26T02:25:36.732Z,1024.48
2017-09-26T02:25:37.331Z,1024.46
2017-09-26T02:26:31.819Z,1024.48
2017-09-26T02:26:32.408Z,1024.47
2017-09-26T02:26:33.007Z,1024.46
2017-09-26T02:26:33.611Z,1024.50
2017-09-26T02:26:34.208Z,1024.46
2017-09-26T02:26:34.806Z,1024.50
2017-09-26T02:26:35.406Z,1024.47
2017-09-26T02:26:36.005Z,1024.51
2017-09-26T02:27:30.511Z,1024.53
2017-09-26T02:27:31.083Z,1024.55
2017-09-26T02:27:31.681Z,1024.52
2017-09-26T02:27:32.281Z,1024.55
2017-09-26T02:27:32.883Z,1024.56
2017-09-26T02:27:33.482Z,1024.52
2017-09-26T02:27:34.082Z,1024.51
2017-09-26T02:27:34.681Z,1024.56
2017-09-26T02:28:28.145Z,1024.52
2017-09-26T02:28:28.743Z,1024.51
2017-09-26T02:28:29.334Z,1024.53
2017-09-26T02:28:29.934Z,1024.51
2017-09-26T02:28:30.538Z,1024.52
2017-09-26T02:28:31.135Z,1024.51
2017-09-26T02:28:31.735Z,1024.54
2017-09-26T02:28:32.334Z,1024.52
2017-09-26T02:29:25.789Z,1024.56
2017-09-26T02:29:26.386Z,1024.51
2017-09-26T02:29:26.988Z,1024.51
2017-09-26T02:29:27.586Z,1024.51
2017-09-26T02:29:28.186Z,1024.53
2017-09-26T02:29:28.787Z,1024.56
2017-09-26T02:29:29.389Z,1024.53
2017-09-26T02:29:29.986Z,1024.54
2017-09-26T02:30:24.465Z,1024.56
2017-09-26T02:30:25.062Z,1024.54
2017-09-26T02:30:25.662Z,1024.57
2017-09-26T02:30:26.262Z,1024.56
2017-09-26T02:30:26.861Z,1024.56
2017-09-26T02:30:27.462Z,1024.56
2017-09-26T02:30:28.061Z,1024.53
2017-09-26T02:30:28.661Z,1024.55
2017-09-26T02:31:22.117Z,1024.58
2017-09-26T02:31:22.715Z,1024.56
2017-09-26T02:31:23.315Z,1024.55
2017-09-26T02:31:23.915Z,1024.58
2017-09-26T02:31:24.514Z,1024.55
2017-09-26T02:31:25.115Z,1024.56
2017-09-26T02:31:25.714Z,1024.60
2017-09-26T02:31:26.313Z,1024.56
2017-09-26T02:32:19.804Z,1024.55
2017-09-26T02:32:20.365Z,1024.53
2017-09-26T02:32:20.965Z,1024.54
2017-09-26T02:32:21.565Z,1024.54
2017-09-26T02:32:22.166Z,1024.55
2017-09-26T02:32:22.768Z,1024.54
2017-09-26T02:32:23.365Z,1024.54
2017-09-26T02:32:23.965Z,1024.54
2017-09-26T02:33:18.445Z,1024.56
2017-09-26T02:33:19.041Z,1024.55
2017-09-26T02:33:19.639Z,1024.52
2017-09-26T02:33:20.240Z,1024.52
2017-09-26T02:33:20.842Z,1024.52
2017-09-26T02:33:21.440Z,1024.54
2017-09-26T02:33:22.040Z,1024.52
2017-09-26T02:33:22.640Z,1024.52
2017-09-26T02:34:16.096Z,1024.51
2017-09-26T02:34:16.692Z,1024.51
2017-09-26T02:34:17.295Z,1024.49
2017-09-26T02:34:17.892Z,1024.51
2017-09-26T02:34:18.492Z,1024.50
2017-09-26T02:34:19.091Z,1024.49
2017-09-26T02:34:19.691Z,1024.52
2017-09-26T02:34:20.293Z,1024.53
2017-09-26T02:51:18.999Z,1024.55
2017-09-26T02:51:19.569Z,1024.52
2017-09-26T02:51:20.168Z,1024.52
2017-09-26T02:51:20.771Z,1024.55
2017-09-26T02:51:21.369Z,1024.50
2017-09-26T02:51:21.968Z,1024.52
2017-09-26T02:51:22.568Z,1024.53
2017-09-26T02:51:23.167Z,1024.52
2017-09-26T02:52:16.654Z,1024.51
2017-09-26T02:52:17.231Z,1024.51
2017-09-26T02:52:17.822Z,1024.51
2017-09-26T02:52:18.421Z,1024.49
2017-09-26T02:52:19.021Z,1024.51
2017-09-26T02:52:19.621Z,1024.52
2017-09-26T02:52:20.221Z,1024.48
2017-09-26T02:52:20.822Z,1024.50
2017-09-26T02:53:14.279Z,1024.53
2017-09-26T02:53:14.874Z,1024.51
2017-09-26T02:53:15.473Z,1024.47
2017-09-26T02:53:16.074Z,1024.51
2017-09-26T02:53:16.675Z,1024.47
2017-09-26T02:53:17.274Z,1024.49
2017-09-26T02:53:17.874Z,1024.51
2017-09-26T02:53:18.473Z,1024.47
2017-09-26T02:54:12.953Z,1024.48
2017-09-26T02:54:13.549Z,1024.50
2017-09-26T02:54:14.149Z,1024.49
2017-09-26T02:54:14.748Z,1024.49
2017-09-26T02:54:15.349Z,1024.51
2017-09-26T02:54:15.953Z,1024.50
2017-09-26T02:54:16.550Z,1024.51
2017-09-26T02:54:17.150Z,1024.50
2017-09-26T02:55:10.606Z,1024.50
2017-09-26T02:55:11.202Z,1024.50
2017-09-26T02:55:11.801Z,1024.48
2017-09-26T02:55:12.402Z,1024.48
2017-09-26T02:55:13.002Z,1024.47
2017-09-26T02:55:13.602Z,1024.48
2017-09-26T02:55:14.201Z,1024.48
2017-09-26T02:55:14.802Z,1024.52
2017-09-26T02:56:09.281Z,1024.49
2017-09-26T02:56:09.878Z,1024.48
2017-09-26T02:56:10.476Z,1024.46
2017-09-26T02:56:11.077Z,1024.51
2017-09-26T02:56:11.677Z,1024.51
2017-09-26T02:56:12.277Z,1024.47
2017-09-26T02:56:12.876Z,1024.52
2017-09-26T02:56:13.476Z,1024.49
2017-09-26T02:57:06.934Z,1024.48
2017-09-26T02:57:07.531Z,1024.48
2017-09-26T02:57:08.131Z,1024.50
2017-09-26T02:57:08.730Z,1024.52
2017-09-26T02:57:09.330Z,1024.48
2017-09-26T02:57:09.930Z,1024.46
2017-09-26T02:57:10.536Z,1024.48
2017-09-26T02:57:11.130Z,1024.48
2017-09-26T02:58:05.651Z,1024.49
2017-09-26T02:58:06.204Z,1024.50
2017-09-26T02:58:06.806Z,1024.48
2017-09-26T02:58:07.404Z,1024.48
2017-09-26T02:58:08.003Z,1024.47
2017-09-26T02:58:08.602Z,1024.48
2017-09-26T02:58:09.204Z,1024.47
2017-09-26T02:58:09.803Z,1024.48
2017-09-26T02:59:03.262Z,1024.49
2017-09-26T02:59:03.858Z,1024.47
2017-09-26T02:59:04.458Z,1024.51
2017-09-26T02:59:05.064Z,1024.52
2017-09-26T02:59:05.657Z,1024.50
2017-09-26T02:59:06.257Z,1024.50
2017-09-26T02:59:06.856Z,1024.51
2017-09-26T02:59:07.456Z,1024.52
2017-09-26T03:00:01.936Z,1024.51
2017-09-26T03:00:02.532Z,1024.48
2017-09-26T03:00:03.133Z,1024.45
2017-09-26T03:00:03.732Z,1024.45
2017-09-26T03:00:04.332Z,1024.47
2017-09-26T03:00:04.932Z,1024.51
2017-09-26T03:00:05.533Z,1024.50
2017-09-26T03:00:06.132Z,1024.48
2017-09-26T03:01:00.629Z,1024.49
2017-09-26T03:01:01.208Z,1024.47
2017-09-26T03:01:01.809Z,1024.47
2017-09-26T03:01:02.410Z,1024.51
2017-09-26T03:01:03.008Z,1024.50
2017-09-26T03:01:03.608Z,1024.47
2017-09-26T03:01:04.208Z,1024.51
2017-09-26T03:01:04.808Z,1024.48
2017-09-26T03:01:58.265Z,1024.51
2017-09-26T03:01:58.860Z,1024.51
2017-09-26T03:01:59.460Z,1024.46
2017-09-26T03:02:00.063Z,1024.49
2017-09-26T03:02:00.661Z,1024.49
2017-09-26T03:02:01.260Z,1024.50
2017-09-26T03:02:01.860Z,1024.49
2017-09-26T03:02:02.460Z,1024.49
2017-09-26T03:02:55.931Z,1024.50
2017-09-26T03:02:56.515Z,1024.47
2017-09-26T03:02:57.113Z,1024.51
2017-09-26T03:02:57.714Z,1024.52
2017-09-26T03:02:58.312Z,1024.50
2017-09-26T03:02:58.912Z,1024.50
2017-09-26T03:02:59.512Z,1024.50
2017-09-26T03:03:00.112Z,1024.53
2017-09-26T03:03:53.598Z,1024.47
2017-09-26T03:03:54.165Z,1024.52
2017-09-26T03:03:54.765Z,1024.46
2017-09-26T03:03:55.365Z,1024.51
2017-09-26T03:03:55.965Z,1024.50
2017-09-26T03:03:56.565Z,1024.50
2017-09-26T03:03:57.165Z,1024.51
2017-09-26T03:03:57.764Z,1024.50
2017-09-26T03:04:52.243Z,1024.51
2017-09-26T03:04:52.838Z,1024.50
2017-09-26T03:04:53.439Z,1024.54
2017-09-26T03:04:54.038Z,1024.53
2017-09-26T03:04:54.639Z,1024.55
2017-09-26T03:04:55.238Z,1024.52
2017-09-26T03:04:55.839Z,1024.54
2017-09-26T03:04:56.443Z,1024.53
2017-09-26T03:05:49.895Z,1024.55
2017-09-26T03:05:50.492Z,1024.54
2017-09-26T03:05:51.092Z,1024.55
2017-09-26T03:05:51.692Z,1024.53
2017-09-26T03:05:52.292Z,1024.55
2017-09-26T03:05:52.893Z,1024.51
2017-09-26T03:05:53.491Z,1024.52
2017-09-26T03:05:54.092Z,1024.53
2017-09-26T03:06:47.547Z,1024.54
2017-09-26T03:06:48.145Z,1024.55
2017-09-26T03:06:48.745Z,1024.53
2017-09-26T03:06:49.344Z,1024.52
2017-09-26T03:06:49.944Z,1024.54
2017-09-26T03:06:50.545Z,1024.53
2017-09-26T03:06:51.144Z,1024.52
2017-09-26T03:06:51.744Z,1024.56
2017-09-26T03:07:45.199Z,1024.53
2017-09-26T03:07:45.796Z,1024.55
2017-09-26T03:07:46.395Z,1024.56
2017-09-26T03:07:46.995Z,1024.55
2017-09-26T03:07:47.594Z,1024.57
2017-09-26T03:07:48.195Z,1024.53
2017-09-26T03:07:48.795Z,1024.54
2017-09-26T03:07:49.395Z,1024.53
2017-09-26T03:08:43.874Z,1024.54
2017-09-26T03:08:44.471Z,1024.53
2017-09-26T03:08:45.071Z,1024.53
2017-09-26T03:08:45.671Z,1024.51
2017-09-26T03:08:46.269Z,1024.55
2017-09-26T03:08:46.870Z,1024.54
2017-09-26T03:08:47.473Z,1024.49
2017-09-26T03:08:48.068Z,1024.55
2017-09-26T03:09:41.549Z,1024.57
2017-09-26T03:09:42.123Z,1024.56
2017-09-26T03:09:42.723Z,1024.54
2017-09-26T03:09:43.322Z,1024.58
2017-09-26T03:09:43.924Z,1024.56
2017-09-26T03:09:44.523Z,1024.51
2017-09-26T03:09:45.126Z,1024.54
2017-09-26T03:09:45.720Z,1024.57
2017-09-26T03:10:39.178Z,1024.52
2017-09-26T03:10:39.774Z,1024.51
2017-09-26T03:10:40.374Z,1024.53
2017-09-26T03:10:40.974Z,1024.53
2017-09-26T03:10:41.575Z,1024.55
2017-09-26T03:10:42.174Z,1024.56
2017-09-26T03:10:42.774Z,1024.53
2017-09-26T03:10:43.377Z,1024.52
2017-09-26T03:11:37.853Z,1024.55
2017-09-26T03:11:38.452Z,1024.54
2017-09-26T03:11:39.050Z,1024.54
2017-09-26T03:11:39.649Z,1024.54
2017-09-26T03:11:40.249Z,1024.51
2017-09-26T03:11:40.849Z,1024.51
2017-09-26T03:11:41.449Z,1024.52
2017-09-26T03:11:42.049Z,1024.52
2017-09-26T03:12:35.506Z,1024.49
2017-09-26T03:12:36.103Z,1024.47
2017-09-26T03:12:36.702Z,1024.51
2017-09-26T03:12:37.302Z,1024.51
2017-09-26T03:12:37.903Z,1024.51
2017-09-26T03:12:38.503Z,1024.54
2017-09-26T03:12:39.102Z,1024.50
2017-09-26T03:12:39.702Z,1024.49
2017-09-26T03:13:34.180Z,1024.47
2017-09-26T03:13:34.776Z,1024.49
2017-09-26T03:13:35.376Z,1024.49
2017-09-26T03:13:35.977Z,1024.48
2017-09-26T03:13:36.576Z,1024.52
2017-09-26T03:13:37.176Z,1024.49
2017-09-26T03:13:37.775Z,1024.51
2017-09-26T03:13:38.376Z,1024.50
2017-09-26T03:14:32.891Z,1024.47
2017-09-26T03:14:33.452Z,1024.47
2017-09-26T03:14:34.057Z,1024.48
2017-09-26T03:14:34.652Z,1024.52
2017-09-26T03:14:35.253Z,1024.49
2017-09-26T03:14:35.853Z,1024.42
2017-09-26T03:14:36.453Z,1024.50
2017-09-26T03:14:37.052Z,1024.46
2017-09-26T03:15:31.532Z,1024.44
2017-09-26T03:15:32.129Z,1024.49
2017-09-26T03:15:32.729Z,1024.47
2017-09-26T03:15:33.329Z,1024.46
2017-09-26T03:15:33.929Z,1024.45
2017-09-26T03:15:34.534Z,1024.48
2017-09-26T03:15:35.128Z,1024.51
2017-09-26T03:15:35.728Z,1024.47
2017-09-26T03:16:29.185Z,1024.48
2017-09-26T03:16:29.780Z,1024.46
2017-09-26T03:16:30.381Z,1024.48
2017-09-26T03:16:30.980Z,1024.47
2017-09-26T03:16:31.580Z,1024.48
2017-09-26T03:16:32.181Z,1024.45
2017-09-26T03:16:32.782Z,1024.48
2017-09-26T03:16:33.380Z,1024.47
2017-09-26T03:17:27.860Z,1024.47
2017-09-26T03:17:28.456Z,1024.47
2017-09-26T03:17:29.056Z,1024.49
2017-09-26T03:17:29.657Z,1024.46
2017-09-26T03:17:30.256Z,1024.48
2017-09-26T03:17:30.858Z,1024.48
2017-09-26T03:17:31.456Z,1024.44
2017-09-26T03:17:32.055Z,1024.44
2017-09-26T03:18:26.535Z,1024.44
2017-09-26T03:18:27.132Z,1024.47
2017-09-26T03:18:27.732Z,1024.48
2017-09-26T03:18:28.332Z,1024.44
2017-09-26T03:18:28.931Z,1024.47
2017-09-26T03:18:29.531Z,1024.47
2017-09-26T03:18:30.135Z,1024.47
2017-09-26T03:18:30.730Z,1024.46
2017-09-26T03:19:24.187Z,1024.46
2017-09-26T03:19:24.784Z,1024.45
2017-09-26T03:19:25.384Z,1024.49
2017-09-26T03:19:25.984Z,1024.47
2017-09-26T03:19:26.583Z,1024.46
2017-09-26T03:19:27.185Z,1024.47
2017-09-26T03:19:27.785Z,1024.48
2017-09-26T03:19:28.383Z,1024.48
2017-09-26T03:20:21.869Z,1024.50
2017-09-26T03:20:22.437Z,1024.46
2017-09-26T03:20:23.037Z,1024.52
2017-09-26T03:20:23.638Z,1024.47
2017-09-26T03:20:24.236Z,1024.47
2017-09-26T03:20:24.835Z,1024.43